Juist Airport

EDWJ · Niedersachsen, Alemania

METAR pasados EDWJ · Juist Airport

A continuación puedes ver los METAR de los últimos días. Selecciona un año para ver los METAR más antiguos, desde el año 2007 en adelante.

20 de marzo de 2023

Hora Código Tiempo Temp. Visibilidad Cielo nuboso Viento METAR/SPECI
10:20
V
9 °C 10 km+ 4.100 ft 230° 230° 9 kt METAR ETNT 200920Z 23009KT 9999 BKN041 09/05 Q1016 BLACKBLU
09:20
V
8 °C 10 km+ 3.700 ft 240° 240° 10 kt METAR ETNT 200820Z 24010KT 9999 BKN037 08/05 Q1016 BLACKBLU
08:20
V
8 °C 10 km+ 3.100 ft 230° 230° 8 kt METAR ETNT 200720Z 23008KT 9999 BKN031 08/05 Q1016 BLACKBLU
07:20
M
7 °C 10 km+ 2.800 ft 230° 230° 7 kt METAR ETNT 200620Z 23007KT 9999 BKN028 07/06 Q1016 BLACKBLU
06:20
M
7 °C 10 km+ 2.700 ft 230° 230° 7 kt METAR ETNT 200520Z 23007KT 9999 BKN027 07/06 Q1016 BLACKBLU
05:20
U
7 °C 0 m - 230° 230° 7 kt METAR ETNT 200420Z AUTO 23007KT //// // ////// 07/06 Q1016 ///
04:20
U
7 °C 0 m - 240° 240° 6 kt METAR ETNT 200320Z AUTO 24006KT //// // ////// 07/06 Q1016 ///
03:20
U
7 °C 0 m - 260° 260° 9 kt METAR ETNT 200220Z AUTO 26009KT //// // ////// 07/06 Q1016 ///
02:20
U
6 °C 0 m - 270° 270° 9 kt METAR ETNT 200120Z AUTO 27009KT //// // ////// 06/06 Q1017 ///
01:20
U
6 °C 0 m - 270° 270° 9 kt METAR ETNT 200020Z AUTO 27009KT //// // ////// 06/06 Q1017 ///
00:20
U
6 °C 0 m - 270° 270° 10 kt METAR ETNT 192320Z AUTO 27010KT //// // ////// 06/06 Q1017 ///

19 de marzo de 2023

Hora Código Tiempo Temp. Visibilidad Cielo nuboso Viento METAR/SPECI
23:20
U
7 °C 0 m - 270° 270° 11 kt METAR ETNT 192220Z AUTO 27011KT //// // ////// 07/06 Q1016 ///
22:20
U
7 °C 0 m - 270° 270° 7 kt METAR ETNT 192120Z AUTO 27007KT //// // ////// 07/07 Q1016 ///
21:20
U
8 °C 0 m - 280° 280° 10 kt METAR ETNT 192020Z AUTO 28010KT //// // ////// 08/07 Q1016 ///
20:20
U
9 °C 0 m - 270° 270° 10 kt METAR ETNT 191920Z AUTO 27010KT //// // ////// 09/08 Q1016 ///
19:20
U
10 °C 0 m - 270° 270° 6 kt METAR ETNT 191820Z AUTO 27006KT //// // ////// 10/08 Q1015 ///
18:20
U
10 °C 0 m - 280° 280° 8 kt METAR ETNT 191720Z AUTO 28008KT //// // ////// 10/08 Q1015 ///
17:20
U
11 °C 0 m - 290° 290° 9 kt METAR ETNT 191620Z AUTO 29009KT //// // ////// 11/09 Q1014 ///
16:20
U
13 °C 0 m - 280° 280° 7 kt METAR ETNT 191520Z AUTO 28007KT //// // ////// 13/09 Q1013 ///
15:20
U
14 °C 0 m - 250° 250° 8 kt METAR ETNT 191420Z AUTO 25008KT //// // ////// 14/08 Q1013 ///
14:20
U
14 °C 0 m - 250° 250° 6 kt METAR ETNT 191320Z AUTO 25006KT //// // ////// 14/08 Q1013 ///
13:20
U
14 °C 0 m - 220° 220° 8 kt METAR ETNT 191220Z AUTO 22008KT //// // ////// 14/08 Q1013 ///
12:20
U
12 °C 0 m - 220° 220° 7 kt METAR ETNT 191120Z AUTO 22007KT //// // ////// 12/09 Q1013 ///
11:20
U
12 °C 0 m - 240° 240° 7 kt METAR ETNT 191020Z AUTO 24007KT //// // ////// 12/09 Q1013 ///
10:20
U
11 °C 0 m - 230° 230° 7 kt METAR ETNT 190920Z AUTO 23007KT //// // ////// 11/09 Q1012 ///
09:20
U
11 °C 0 m - 220° 220° 4 kt METAR ETNT 190820Z AUTO 22004KT //// // ////// 11/09 Q1012 ///
08:20
U
10 °C 0 m - 190° 190° 4 kt METAR ETNT 190720Z AUTO 19004KT //// // ////// 10/08 Q1011 ///
07:20
U
9 °C 0 m - Var Var 3 kt METAR ETNT 190620Z AUTO VRB03KT //// // ////// 09/08 Q1011 ///
06:20
U
9 °C 0 m - 200° 200° 3 kt METAR ETNT 190520Z AUTO 20003KT //// // ////// 09/08 Q1011 ///
05:20
U
9 °C 0 m - Var Var 2 kt METAR ETNT 190420Z AUTO VRB02KT //// // ////// 09/08 Q1010 ///
04:20
U
9 °C 0 m - 180° 180° 4 kt METAR ETNT 190320Z AUTO 18004KT //// // ////// 09/08 Q1010 ///
03:20
U
9 °C 0 m - Var Var 3 kt METAR ETNT 190220Z AUTO VRB03KT //// // ////// 09/08 Q1010 ///
02:20
U
8 °C 0 m - Var Var 3 kt METAR ETNT 190120Z AUTO VRB03KT //// // ////// 08/08 Q1010 ///
01:20
U
8 °C 0 m - Var Var 2 kt METAR ETNT 190020Z AUTO VRB02KT //// // ////// 08/08 Q1010 ///
00:20
U
8 °C 0 m - 120° 120° 4 kt METAR ETNT 182320Z AUTO 12004KT //// // ////// 08/07 Q1010 ///

18 de marzo de 2023

Hora Código Tiempo Temp. Visibilidad Cielo nuboso Viento METAR/SPECI
23:20
U
9 °C 0 m - 120° 120° 4 kt METAR ETNT 182220Z AUTO 12004KT //// // ////// 09/08 Q1011 ///
22:20
U
9 °C 0 m - 110° 110° 4 kt METAR ETNT 182120Z AUTO 11004KT //// // ////// 09/09 Q1011 ///
21:20
U
10 °C 0 m - Var Var 2 kt METAR ETNT 182020Z AUTO VRB02KT //// // ////// 10/09 Q1011 ///
20:20
U
10 °C 0 m - 130° 130° 4 kt METAR ETNT 181920Z AUTO 13004KT //// // ////// 10/10 Q1011 ///
19:20
U
11 °C 0 m - 070° 070° 7 kt METAR ETNT 181820Z AUTO 07007KT //// // ////// 11/09 Q1010 ///
18:20
U
13 °C 0 m - 070° 070° 2 kt METAR ETNT 181720Z AUTO 07002KT //// // ////// 13/09 Q1010 ///
17:20
U
14 °C 0 m - 230° 230° 3 kt METAR ETNT 181620Z AUTO 23003KT //// // ////// 14/09 Q1010 ///
16:20
U
15 °C 0 m - 230° 230° 5 kt METAR ETNT 181520Z AUTO 23005KT //// // ////// 15/09 Q1010 ///
15:20
U
15 °C 0 m - 240° 240° 7 kt METAR ETNT 181420Z AUTO 24007KT //// // ////// 15/09 Q1010 ///
14:20
U
14 °C 0 m - 220° 220° 7 kt METAR ETNT 181320Z AUTO 22007KT //// // ////// 14/09 Q1010 ///
13:20
U
14 °C 0 m - 240° 240° 8 kt METAR ETNT 181220Z AUTO 24008KT //// // ////// 14/09 Q1010 ///
12:20
U
13 °C 0 m - 240° 240° 5 kt METAR ETNT 181120Z AUTO 24005KT //// // ////// 13/09 Q1010 ///
11:20
U
13 °C 0 m - 270° 270° 8 kt METAR ETNT 181020Z AUTO 27008KT //// // ////// 13/09 Q1009 ///
10:20
U
11 °C 0 m - 250° 250° 7 kt METAR ETNT 180920Z AUTO 25007KT //// // ////// 11/09 Q1009 ///
09:20
U
10 °C 0 m - 250° 250° 8 kt METAR ETNT 180820Z AUTO 25008KT //// // ////// 10/09 Q1009 ///

Nosotros y terceros seguimos tu comportamiento en Internet en nuestro sitio web con cookies. Si continúas, asumimos que estás de acuerdo con nuestra Política de cookies.